Latest Weather Observations for Lucas Heights (ANSTO)

IDN60901

Issued at 8:01 pm EDT Wednesday 25 November 2020 (issued every 10 minutes, with the page automatically refreshed every 10 minutes)

About weather observations | Map of Sydney area stations | Latest observations for Sydney area | Other Formats
Station Details ID: 066023 Name: LUCAS HEIGHTS (ANSTO) Lat: -34.05 Lon: 150.98 Height: 140.0 m
Data from the previous 72 hours. | See also: Recent months for locations in New South Wales
Date/Time
EDT
Temp
°C
App
Temp
°C
Dew
Point
°C
Rel
Hum
%
Delta-T
°C
Wind Press
QNH
hPa
Press
MSL
hPa
Rain since
9am
mm
Dir  Spd
km/h
Gust
km/h
Spd
kts
Gust
kts
25/07:45pm 19.3 16.9 12.6 65 3.8 NNE 17 20 9 11 1012.1 - 0.0
25/07:30pm 19.7 17.7 12.7 64 4.0 NE 15 17 8 9 1011.8 - 0.0
25/07:15pm 20.2 17.9 12.9 63 4.2 NE 17 22 9 12 1011.6 - 0.0
25/07:00pm 20.6 18.3 12.9 61 4.4 NE 17 20 9 11 1011.5 - 0.0
25/06:45pm 21.1 18.2 13.0 60 4.6 NE 20 28 11 15 1011.4 - 0.0
25/06:30pm 21.4 18.6 13.2 59 4.7 NE 20 30 11 16 1011.3 - 0.0
25/06:15pm 21.7 19.0 13.5 59 4.8 NE 20 24 11 13 1011.3 - 0.0
25/06:00pm 21.9 18.9 13.6 59 4.8 NE 22 28 12 15 1011.3 - 0.0
25/05:45pm 22.0 19.4 13.8 59 4.8 NE 20 28 11 15 1011.2 - 0.0
25/05:30pm 22.2 18.8 13.8 59 4.9 NE 24 28 13 15 1011.2 - 0.0
25/05:15pm 22.2 19.2 13.8 59 4.9 NE 22 26 12 14 1011.2 - 0.0
25/05:00pm 22.6 20.0 13.9 58 5.1 NE 20 28 11 15 1011.4 - 0.0
25/04:45pm 22.8 20.3 14.1 58 5.1 NE 20 24 11 13 1011.5 - 0.0
25/04:30pm 23.1 20.8 14.2 57 5.3 NE 19 26 10 14 1011.7 - 0.0
25/04:15pm 22.9 21.0 14.2 58 5.1 NE 17 24 9 13 1011.8 - 0.0
25/04:00pm 22.9 21.0 14.1 57 5.2 NE 17 24 9 13 1011.9 - 0.0
25/03:45pm 22.6 20.6 14.0 58 5.1 ENE 17 22 9 12 1012.2 - 0.0
25/03:30pm 22.6 20.6 13.9 58 5.1 NE 17 20 9 11 1012.3 - 0.0
25/03:15pm 22.4 20.5 14.3 60 4.8 NE 17 22 9 12 1012.5 - 0.0
25/03:00pm 21.8 19.5 14.1 61 4.5 ENE 19 22 10 12 1012.8 - 0.0
25/02:45pm 22.0 19.7 14.2 61 4.6 NE 19 22 10 12 1012.9 - 0.0
25/02:30pm 22.1 20.7 14.6 62 4.4 NNE 15 24 8 13 1013.0 - 0.0
25/02:15pm 22.3 21.0 14.7 62 4.5 NE 15 22 8 12 1013.1 - 0.0
25/02:00pm 21.5 19.8 14.8 65 4.0 ENE 17 22 9 12 1013.4 - 0.0
25/01:45pm 21.4 20.1 14.9 66 3.9 NE 15 22 8 12 1013.7 - 0.0
25/01:30pm 20.6 19.6 14.6 68 3.5 NE 13 17 7 9 1013.9 - 0.0
25/01:15pm 20.4 19.4 14.6 69 3.4 NE 13 17 7 9 1014.1 - 0.0
25/01:00pm 20.7 19.7 14.7 68 3.5 NE 13 17 7 9 1014.2 - 0.0
25/12:45pm 20.9 20.3 14.6 67 3.7 NE 11 15 6 8 1014.3 - 0.0
25/12:30pm 20.6 20.0 14.7 69 3.5 NE 11 15 6 8 1014.5 - 0.0
25/12:15pm 19.9 19.7 14.8 72 3.0 NE 9 13 5 7 1014.8 - 0.0
25/12:00pm 19.3 19.1 14.7 74 2.7 ENE 9 11 5 6 1014.9 - 0.0
25/11:45am 19.0 18.4 14.7 76 2.5 NE 11 13 6 7 1015.1 - 0.0
25/11:30am 19.0 18.4 14.7 76 2.5 NE 11 13 6 7 1015.1 - 0.0
25/11:15am 19.0 18.0 14.6 75 2.6 NE 13 13 7 7 1015.2 - 0.0
25/11:00am 19.2 18.9 14.3 73 2.8 NE 9 13 5 7 1015.3 - 0.0
25/10:45am 19.3 19.4 14.4 73 2.9 NNE 7 11 4 6 1015.3 - 0.0
25/10:30am 19.5 19.7 14.3 72 3.0 N 6 9 3 5 1015.3 - 0.0
25/10:15am 19.2 19.9 14.4 74 2.8 N 4 7 2 4 1015.3 - 0.0
25/10:00am 19.0 19.1 14.0 73 2.9 NNW 6 11 3 6 1015.3 - 0.0
25/09:45am 19.1 19.3 14.1 73 2.9 NNW 6 9 3 5 1015.3 - 0.0
25/09:30am 19.1 19.1 14.3 73 2.8 WNW 7 13 4 7 1015.3 - 0.0
25/09:15am 18.8 19.1 14.5 76 2.5 WNW 6 9 3 5 1015.4 - 0.0
25/09:00am 18.4 18.6 14.3 77 2.4 WNW 6 9 3 5 1015.4 - 0.0
25/08:45am 18.5 18.7 14.2 76 2.5 NW 6 9 3 5 1015.3 - 0.0
25/08:30am 18.5 19.1 14.3 76 2.4 W 4 7 2 4 1015.3 - 0.0
25/08:15am 18.4 18.6 14.1 76 2.5 W 6 7 3 4 1015.2 - 0.0
25/08:00am 18.6 18.9 14.4 76 2.4 WNW 6 9 3 5 1015.1 - 0.0
25/07:45am 17.9 18.6 14.4 80 2.0 NE 4 6 2 3 1015.0 - 0.0
25/07:30am 17.3 18.2 14.1 81 1.8 ENE 2 6 1 3 1014.9 - 0.0
25/07:15am 16.6 16.8 14.2 86 1.4 E 6 7 3 4 1014.7 - 0.0
25/07:00am 16.1 16.3 14.2 88 1.1 ESE 6 6 3 3 1014.7 - 0.0
25/06:45am 15.9 15.8 14.0 88 1.1 SSE 7 7 4 4 1014.6 - 0.0
25/06:30am 15.9 15.8 14.0 88 1.1 SE 7 9 4 5 1014.5 - 0.0
25/06:15am 15.8 15.9 13.9 88 1.1 E 6 7 3 4 1014.3 - 0.0
25/06:00am 15.8 15.7 13.8 88 1.1 NE 7 9 4 5 1014.3 - 0.0
25/05:45am 16.2 15.8 14.0 87 1.3 NNE 9 11 5 6 1014.0 - 0.0
25/05:30am 16.5 16.1 14.1 86 1.4 NE 9 13 5 7 1013.9 - 0.0
25/05:15am 16.4 16.0 14.0 86 1.4 E 9 9 5 5 1013.7 - 0.0
25/05:00am 16.3 15.8 13.8 85 1.4 SSE 9 9 5 5 1013.5 - 0.0
25/04:45am 16.4 16.3 13.9 85 1.4 S 7 7 4 4 1013.5 - 0.0
25/04:30am 16.4 16.0 14.0 86 1.4 SSE 9 9 5 5 1013.5 - 0.0
25/04:15am 16.4 16.0 14.0 86 1.4 SSE 9 11 5 6 1013.4 - 0.0
25/04:00am 16.3 15.5 13.9 86 1.4 SSE 11 11 6 6 1013.3 - 0.0
25/03:45am 16.3 15.8 13.8 85 1.4 SSE 9 9 5 5 1013.3 - 0.0
25/03:30am 16.3 15.8 13.8 85 1.4 SSE 9 9 5 5 1013.3 - 0.0
25/03:15am 16.4 15.9 13.9 85 1.4 SSE 9 9 5 5 1013.4 - 0.0
25/03:00am 16.4 15.9 13.9 85 1.4 S 9 9 5 5 1013.5 - 0.0
25/02:45am 16.4 16.3 13.9 85 1.4 SSE 7 9 4 5 1013.6 - 0.0
25/02:30am 16.5 16.0 13.9 84 1.5 SSE 9 9 5 5 1013.7 - 0.0
25/02:15am 16.6 16.1 13.8 83 1.6 SSE 9 9 5 5 1013.9 - 0.0
25/02:00am 16.6 15.7 13.6 82 1.7 S 11 13 6 7 1013.9 - 0.0
25/01:45am 16.7 16.1 13.5 81 1.8 SSE 9 9 5 5 1014.0 - 0.0
25/01:30am 16.7 16.6 13.4 81 1.9 SSE 6 7 3 4 1014.1 - 0.0
25/01:15am 16.8 16.5 13.3 80 2.0 SE 7 7 4 4 1014.3 - 0.0
25/01:00am 16.8 16.7 13.3 80 2.0 SSE 6 6 3 3 1014.4 - 0.0
25/12:45am 16.9 16.8 13.3 79 2.0 SSE 6 9 3 5 1014.5 - 0.0
25/12:30am 16.9 16.6 13.4 80 2.0 SSE 7 9 4 5 1014.7 - 0.0
25/12:15am 17.0 16.4 13.5 80 2.0 SSE 9 9 5 5 1014.8 - 0.0
25/12:00am 17.1 16.9 13.5 79 2.0 SE 7 9 4 5 1014.8 - 0.0
 
Date/Time
EDT
Temp
°C
App
Temp
°C
Dew
Point
°C
Rel
Hum
%
Delta-T
°C
Wind Press
QNH
hPa
Press
MSL
hPa
Rain since
9am
mm
Dir  Spd
km/h
Gust
km/h
Spd
kts
Gust
kts
24/11:45pm 17.1 16.5 13.5 79 2.0 SE 9 11 5 6 1014.9 - 0.0
24/11:30pm 17.2 16.6 13.4 78 2.2 SE 9 13 5 7 1014.9 - 0.0
24/11:15pm 17.2 16.6 13.6 79 2.0 SE 9 15 5 8 1014.8 - 0.0
24/11:00pm 17.3 17.2 13.8 80 2.0 SE 7 13 4 7 1014.7 - 0.0
24/10:45pm 17.4 17.0 14.0 80 1.9 SE 9 15 5 8 1014.7 - 0.0
24/10:30pm 17.4 17.0 14.0 80 1.9 ESE 9 13 5 7 1014.6 - 0.0
24/10:15pm 17.3 16.8 13.9 80 1.9 SE 9 11 5 6 1014.5 - 0.0
24/10:00pm 17.3 17.4 13.8 80 2.0 SE 6 13 3 7 1014.5 - 0.0
24/09:45pm 17.4 16.9 13.8 79 2.1 SE 9 15 5 8 1014.4 - 0.0
24/09:30pm 17.4 16.9 13.8 79 2.1 SE 9 11 5 6 1014.4 - 0.0
24/09:15pm 17.4 16.9 13.7 79 2.1 SE 9 13 5 7 1014.3 - 0.0
24/09:00pm 17.4 16.5 13.6 78 2.2 SE 11 15 6 8 1014.1 - 0.0
24/08:45pm 17.4 16.4 13.5 78 2.2 SE 11 15 6 8 1013.9 - 0.0
24/08:30pm 17.5 16.1 13.5 77 2.3 ESE 13 20 7 11 1013.7 - 0.0
24/08:15pm 17.4 15.7 13.6 78 2.2 ESE 15 20 8 11 1013.4 - 0.0
24/08:00pm 17.4 15.3 13.6 78 2.2 ESE 17 20 9 11 1013.2 - 0.0
24/07:45pm 17.5 16.1 13.5 77 2.3 ESE 13 17 7 9 1013.0 - 0.0
24/07:30pm 17.7 14.9 13.3 75 2.5 ESE 20 22 11 12 1012.7 - 0.0
24/07:15pm 17.8 15.6 13.4 75 2.5 ESE 17 22 9 12 1012.4 - 0.0
24/07:00pm 18.0 15.2 13.1 73 2.8 ESE 20 22 11 12 1012.1 - 0.0
24/06:45pm 18.1 14.9 13.0 72 2.9 ESE 22 26 12 14 1011.9 - 0.0
24/06:30pm 18.2 15.3 12.9 71 3.0 ESE 20 24 11 13 1011.6 - 0.0
24/06:15pm 18.4 16.1 13.0 71 3.1 SE 17 22 9 12 1011.4 - 0.0
24/06:00pm 18.7 16.0 12.8 68 3.3 SE 19 24 10 13 1011.2 - 0.0
24/05:45pm 19.5 16.9 13.2 67 3.6 ESE 19 26 10 14 1011.0 - 0.0
24/05:30pm 19.4 15.7 12.7 65 3.8 ESE 24 30 13 16 1010.9 - 0.0
24/05:15pm 19.6 15.9 12.8 65 3.9 ESE 24 30 13 16 1010.8 - 0.0
24/05:00pm 19.6 15.5 12.7 64 3.9 SE 26 30 14 16 1010.8 - 0.0
24/04:45pm 20.1 16.0 12.7 62 4.2 ESE 26 30 14 16 1010.7 - 0.0
24/04:30pm 20.2 16.5 12.6 61 4.3 ESE 24 37 13 20 1010.7 - 0.0
24/04:15pm 20.2 15.5 12.0 59 4.6 ESE 28 30 15 16 1010.7 - 0.0
24/04:00pm 20.4 15.7 12.0 58 4.7 ESE 28 32 15 17 1010.8 - 0.0
24/03:45pm 20.4 16.0 11.8 57 4.8 SE 26 32 14 17 1010.9 - 0.0
24/03:30pm 20.6 15.8 11.7 56 5.0 ESE 28 35 15 19 1011.1 - 0.0
24/03:15pm 20.6 15.8 11.5 56 5.1 SE 28 39 15 21 1011.1 - 0.0
24/03:00pm 20.9 16.9 11.9 56 5.1 SE 24 32 13 17 1011.1 - 0.0
24/02:45pm 21.0 15.9 11.8 55 5.2 ESE 30 39 16 21 1011.1 - 0.0
24/02:30pm 21.3 16.9 11.7 54 5.4 ESE 26 32 14 17 1011.2 - 0.0
24/02:15pm 21.4 18.2 11.8 54 5.4 ESE 20 32 11 17 1011.2 - 0.0
24/02:00pm 21.0 17.4 12.0 56 5.1 SE 22 28 12 15 1011.4 - 0.0
24/01:45pm 20.6 16.0 11.0 54 5.3 SE 26 28 14 15 1011.6 - 0.0
24/01:30pm 21.0 16.5 11.4 54 5.3 ESE 26 33 14 18 1011.6 - 0.0
24/01:15pm 20.0 16.7 11.5 58 4.7 SSE 20 30 11 16 1011.8 - 0.0
24/01:00pm 20.6 17.2 11.4 55 5.1 SSE 20 28 11 15 1011.6 - 0.0
24/12:45pm 21.7 18.5 11.8 53 5.6 SSE 20 30 11 16 1011.5 - 0.0
24/12:30pm 21.1 18.0 11.6 54 5.3 SE 19 26 10 14 1011.5 - 0.0
24/12:15pm 20.8 17.5 11.7 56 5.1 SSE 20 28 11 15 1011.5 - 0.0
24/12:00pm 20.4 17.3 11.7 57 4.9 SSE 19 28 10 15 1011.5 - 0.0
24/11:45am 20.0 16.8 11.9 59 4.5 SSE 20 26 11 14 1011.7 - 0.0
24/11:30am 19.8 16.5 11.5 58 4.6 SSE 20 26 11 14 1012.0 - 0.0
24/11:15am 19.7 14.3 11.0 57 4.8 SSE 30 35 16 19 1012.1 - 0.0
24/11:00am 20.0 14.2 10.7 55 5.1 SSE 32 39 17 21 1012.1 - 0.0
24/10:45am 20.3 15.4 11.2 56 5.0 SSE 28 35 15 19 1012.2 - 0.0
24/10:30am 19.5 13.9 11.5 60 4.4 SSE 32 35 17 19 1012.3 - 0.0
24/10:15am 19.6 15.3 12.2 62 4.2 SSE 26 33 14 18 1012.3 - 0.0
24/10:00am 19.5 16.6 12.9 65 3.7 SSE 20 30 11 16 1012.2 - 0.0
24/09:45am 18.3 15.6 12.8 70 3.1 SSE 19 30 10 16 1012.2 - 0.0
24/09:30am 18.1 14.5 13.0 72 2.9 SSE 24 32 13 17 1012.1 - 0.0
24/09:15am 18.6 15.4 13.1 70 3.1 SSE 22 32 12 17 1012.0 - 0.0
24/09:00am 19.2 15.6 13.1 68 3.5 S 24 30 13 16 1011.7 - 0.8
24/08:45am 18.8 15.7 13.4 71 3.1 S 22 32 12 17 1011.6 - 0.8
24/08:30am 18.3 15.7 13.7 74 2.6 SSE 20 30 11 16 1011.5 - 0.8
24/08:15am 18.0 15.5 13.6 75 2.5 SSE 19 26 10 14 1011.4 - 0.8
24/08:00am 17.8 16.1 13.6 76 2.4 S 15 22 8 12 1011.3 - 0.8
24/07:45am 17.7 16.3 13.5 76 2.4 SSE 13 24 7 13 1011.3 - 0.8
24/07:30am 17.7 16.0 13.6 77 2.3 S 15 22 8 12 1011.2 - 0.8
24/07:15am 17.6 17.4 13.7 78 2.2 S 7 13 4 7 1011.0 - 0.8
24/07:00am 17.4 16.1 13.6 78 2.2 SSE 13 20 7 11 1010.9 - 0.8
24/06:45am 17.3 15.6 13.5 78 2.2 SSE 15 22 8 12 1010.8 - 0.8
24/06:30am 17.0 16.1 13.6 80 1.9 SSE 11 20 6 11 1010.5 - 0.8
24/06:15am 16.8 15.4 13.4 80 1.9 SSE 13 19 7 10 1010.3 - 0.8
24/06:00am 16.8 15.4 13.4 80 1.9 S 13 20 7 11 1010.0 - 0.8
24/05:45am 16.6 14.8 13.3 81 1.9 S 15 17 8 9 1009.8 - 0.8
24/05:30am 16.5 14.6 13.1 80 1.9 SSE 15 22 8 12 1009.5 - 0.8
24/05:15am 16.3 13.4 13.0 81 1.8 SSE 20 28 11 15 1009.3 - 0.8
24/05:00am 16.0 13.3 12.8 81 1.8 SSE 19 28 10 15 1009.0 - 0.8
24/04:45am 16.2 13.8 12.8 80 1.9 SSE 17 22 9 12 1009.1 - 0.8
24/04:30am 16.3 13.6 12.8 80 2.0 SSE 19 22 10 12 1008.9 - 0.8
24/04:15am 16.3 13.5 12.6 79 2.1 SSE 19 22 10 12 1008.8 - 0.8
24/04:00am 16.6 13.8 12.7 78 2.2 SSE 19 20 10 11 1008.7 - 0.8
24/03:45am 16.8 14.4 12.7 77 2.3 SSE 17 20 9 11 1008.7 - 0.8
24/03:30am 17.0 14.3 12.8 76 2.4 SSE 19 26 10 14 1008.9 - 0.8
24/03:15am 16.9 14.0 12.8 77 2.3 SSE 20 24 11 13 1008.9 - 0.8
24/03:00am 16.9 14.2 12.8 77 2.3 SSE 19 26 10 14 1009.0 - 0.8
24/02:45am 17.1 14.3 12.7 75 2.5 S 19 26 10 14 1009.1 - 0.8
24/02:30am 17.2 14.8 12.8 75 2.5 SSE 17 24 9 13 1009.2 - 0.8
24/02:15am 17.4 14.7 13.0 75 2.5 SSE 19 26 10 14 1009.3 - 0.8
24/02:00am 17.4 14.2 13.2 76 2.4 SSE 22 30 12 16 1009.5 - 0.8
24/01:45am 17.4 14.6 13.3 77 2.3 SSE 20 30 11 16 1009.4 - 0.8
24/01:30am 17.4 14.3 13.3 77 2.3 SSE 22 32 12 17 1009.3 - 0.8
24/01:15am 17.2 14.4 13.3 78 2.2 SSE 20 28 11 15 1009.2 - 0.8
24/01:00am 17.3 15.1 13.3 77 2.3 SSE 17 24 9 13 1009.1 - 0.8
24/12:45am 17.4 15.2 13.3 77 2.3 SSE 17 20 9 11 1009.2 - 0.8
24/12:30am 17.5 15.7 13.2 76 2.4 SSE 15 17 8 9 1009.1 - 0.8
24/12:15am 17.7 16.6 13.2 75 2.5 SSE 11 17 6 9 1009.1 - 0.8
24/12:00am 17.6 16.1 13.1 75 2.5 S 13 19 7 10 1009.0 - 0.8
 
Date/Time
EDT
Temp
°C
App
Temp
°C
Dew
Point
°C
Rel
Hum
%
Delta-T
°C
Wind Press
QNH
hPa
Press
MSL
hPa
Rain since
9am
mm
Dir  Spd
km/h
Gust
km/h
Spd
kts
Gust
kts
23/11:45pm 17.7 15.9 13.3 75 2.5 SSE 15 20 8 11 1009.0 - 0.8
23/11:30pm 17.9 15.2 13.6 76 2.5 SSE 20 26 11 14 1008.9 - 0.8
23/11:15pm 17.9 14.9 13.7 76 2.4 SSE 22 32 12 17 1008.7 - 0.8
23/11:00pm 17.9 14.5 13.7 76 2.4 SSE 24 30 13 16 1008.6 - 0.8
23/10:45pm 18.1 14.0 13.7 75 2.5 SSE 28 35 15 19 1008.6 - 0.8
23/10:30pm 18.1 14.5 14.1 77 2.3 SSE 26 35 14 19 1008.6 - 0.8
23/10:15pm 18.2 14.7 14.5 79 2.1 SSE 26 35 14 19 1008.6 - 0.8
23/10:00pm 18.5 14.6 14.4 77 2.4 SSE 28 39 15 21 1008.4 - 0.8
23/09:45pm 18.8 14.3 13.8 72 2.9 SSE 30 37 16 20 1008.1 - 0.8
23/09:30pm 19.0 14.7 13.3 69 3.3 SSE 28 30 15 16 1007.8 - 0.8
23/09:15pm 19.1 15.9 13.2 68 3.4 SSE 22 30 12 16 1007.5 - 0.8
23/09:00pm 19.1 16.6 13.4 69 3.3 SSE 19 24 10 13 1007.1 - 0.8
23/08:45pm 19.3 16.7 13.9 71 3.1 SSE 20 30 11 16 1006.7 - 0.8
23/08:30pm 19.5 17.1 14.3 72 3.0 SSE 20 28 11 15 1006.3 - 0.8
23/08:15pm 19.7 17.5 14.5 72 3.0 SSE 19 22 10 12 1006.1 - 0.8
23/08:00pm 20.1 18.8 14.8 71 3.1 SSE 15 24 8 13 1005.9 - 0.8
23/07:45pm 20.7 19.9 15.1 70 3.3 SSE 13 15 7 8 1005.6 - 0.8
23/07:30pm 20.8 19.2 15.1 70 3.4 SSE 17 19 9 10 1005.6 - 0.8
23/07:15pm 21.0 19.5 15.2 69 3.5 SSE 17 19 9 10 1005.6 - 0.8
23/07:00pm 21.1 19.2 15.1 68 3.6 SW 19 17 10 9 1005.5 - 0.8
23/06:45pm 21.3 18.7 15.0 67 3.7 WSW 22 24 12 13 1005.5 - 0.8
23/06:30pm 21.2 19.0 15.0 67 3.7 W 20 22 11 12 1005.1 - 0.8
23/06:15pm 21.2 18.2 14.8 67 3.8 W 24 26 13 14 1004.7 - 0.8
23/06:00pm 21.2 18.5 14.5 65 3.9 WSW 22 28 12 15 1004.7 - 0.8
23/05:45pm 21.4 18.5 13.9 62 4.4 WSW 22 28 12 15 1004.6 - 0.8
23/05:30pm 21.8 18.3 13.5 59 4.8 SW 24 28 13 15 1004.6 - 0.8
23/05:15pm 22.3 18.3 13.0 55 5.4 SW 26 32 14 17 1004.6 - 0.8
23/05:00pm 22.7 19.0 12.8 53 5.7 SW 24 37 13 20 1004.9 - 0.8
23/04:45pm 22.9 19.3 13.2 54 5.6 SSW 24 30 13 16 1005.0 - 0.8
23/04:30pm 24.0 21.4 15.8 60 5.0 SSW 24 43 13 23 1004.8 - 0.8
23/04:15pm 24.5 24.8 16.0 59 5.2 W 9 13 5 7 1004.3 - 0.8
23/04:00pm 24.0 23.5 15.9 60 4.9 WNW 13 17 7 9 1004.3 - 0.8
23/03:45pm 23.5 23.0 15.9 62 4.6 NW 13 20 7 11 1004.2 - 0.8
23/03:30pm 23.1 21.3 16.0 64 4.3 NW 20 22 11 12 1004.1 - 0.8
23/03:15pm 22.9 21.7 16.2 66 4.1 NW 17 20 9 11 1004.5 - 0.8
23/03:00pm 22.5 20.8 16.2 67 3.8 WNW 20 22 11 12 1004.7 - 0.8
23/02:45pm 22.4 20.5 16.6 69 3.6 WNW 22 26 12 14 1004.8 - 0.8
23/02:30pm 22.4 20.5 16.6 69 3.6 WNW 22 22 12 12 1005.0 - 0.8
23/02:15pm 22.1 19.9 16.9 72 3.2 NW 24 28 13 15 1004.4 - 0.8
23/02:00pm 21.6 19.4 17.9 79 2.3 NW 26 37 14 20 1004.3 - 0.8
23/01:45pm 21.6 19.1 18.1 80 2.2 NW 28 32 15 17 1005.0 - 0.8
23/01:30pm 22.0 20.0 18.4 80 2.3 NW 26 30 14 16 1005.8 - 0.6
23/01:15pm 22.3 19.6 18.5 79 2.4 WNW 30 33 16 18 1006.1 - 0.4
23/01:00pm 22.7 20.9 18.8 78 2.5 WNW 26 30 14 16 1006.0 - 0.2
23/12:45pm 22.9 22.2 19.6 81 2.1 NW 22 28 12 15 1006.1 - 0.2
23/12:30pm 22.7 22.6 19.6 82 2.0 NW 19 22 10 12 1006.7 - 0.2
23/12:15pm 22.8 23.4 19.5 81 2.1 NW 15 17 8 9 1007.2 - 0.2
23/12:00pm 22.9 23.4 19.3 80 2.3 WNW 15 15 8 8 1007.2 - 0.2
23/11:45am 22.9 23.2 18.7 77 2.7 W 15 15 8 8 1007.2 - 0.2
23/11:30am 23.5 24.1 18.6 74 3.1 W 13 15 7 8 1007.1 - 0.0
23/11:15am 23.9 24.1 18.6 72 3.4 W 15 20 8 11 1007.2 - 0.0
23/11:00am 24.0 24.2 19.3 75 3.0 W 17 22 9 12 1007.6 - 0.0
23/10:45am 23.0 23.4 19.0 78 2.6 WNW 15 20 8 11 1007.6 - 0.0
23/10:30am 22.8 22.7 18.8 78 2.5 WNW 17 20 9 11 1007.9 - 0.0
23/10:15am 23.2 23.6 19.0 77 2.7 WNW 15 20 8 11 1007.7 - 0.0
23/10:00am 22.8 23.2 19.1 79 2.4 WNW 15 17 8 9 1007.8 - 0.0
23/09:45am 22.5 22.9 19.1 81 2.2 WNW 15 19 8 10 1008.0 - 0.0
23/09:30am 22.3 21.9 19.0 81 2.1 WNW 19 24 10 13 1008.0 - 0.0
23/09:15am 22.0 22.4 19.0 83 1.9 WNW 15 17 8 9 1008.2 - 0.0
23/09:00am 21.6 21.9 18.8 84 1.8 W 15 17 8 9 1008.4 - 3.2
23/08:45am 20.8 21.0 18.5 87 1.4 WSW 15 17 8 9 1008.4 - 3.2
23/08:30am 20.5 21.0 18.3 87 1.4 WSW 13 17 7 9 1008.3 - 3.2
23/08:15am 20.1 21.3 18.3 89 1.1 W 9 13 5 7 1008.4 - 3.2
23/08:00am 19.9 21.1 18.2 90 1.1 WNW 9 13 5 7 1008.7 - 3.2
23/07:45am 19.8 20.9 18.1 90 1.1 W 9 11 5 6 1008.8 - 3.2
23/07:30am 19.3 20.3 17.7 90 1.0 SW 9 9 5 5 1009.0 - 3.0
23/07:15am 19.2 19.8 17.6 90 1.0 SSW 11 13 6 7 1008.9 - 3.0
23/07:00am 19.1 19.6 17.5 90 1.0 S 11 11 6 6 1009.0 - 3.0
23/06:45am 19.1 19.9 17.4 90 1.0 SSW 9 9 5 5 1009.4 - 2.7
23/06:30am 19.1 19.9 17.3 89 1.1 SW 9 11 5 6 1009.5 - 2.5
23/06:15am 19.2 19.6 17.3 89 1.2 SSW 11 13 6 7 1009.6 - 2.3
23/06:00am 19.2 18.9 17.4 89 1.1 S 15 17 8 9 1009.8 - 1.9
23/05:45am 19.3 19.0 17.3 88 1.2 S 15 20 8 11 1009.7 - 1.5
23/05:30am 19.4 18.7 17.3 88 1.3 S 17 19 9 10 1010.0 - 1.5
23/05:15am 19.7 18.4 17.3 86 1.5 SSW 20 26 11 14 1010.4 - 1.3
23/05:00am 20.1 18.4 17.2 83 1.8 SW 22 28 12 15 1010.7 - 1.1
23/04:45am 20.9 18.8 17.2 79 2.3 SW 24 28 13 15 1010.7 - 0.8
23/04:30am 20.7 18.6 17.2 80 2.2 SSW 24 30 13 16 1010.3 - 0.4
23/04:15am 20.8 17.6 17.3 80 2.2 SW 30 35 16 19 1010.4 - 0.2
23/04:00am 21.2 16.8 17.5 79 2.3 SW 37 48 20 26 1010.5 - 0.0
23/03:45am 21.7 17.4 17.9 79 2.4 SW 37 52 20 28 1010.0 - 0.0
23/03:30am 21.9 21.4 17.9 78 2.5 W 17 20 9 11 1008.7 - 0.0
23/03:15am 21.6 21.9 17.8 79 2.4 W 13 13 7 7 1008.4 - 0.0
23/03:00am 21.1 22.0 17.6 80 2.2 W 9 13 5 7 1008.4 - 0.0
23/02:45am 21.3 22.6 17.6 79 2.3 WSW 7 9 4 5 1008.6 - 0.0
23/02:30am 22.0 22.6 17.7 76 2.7 WNW 11 15 6 8 1008.7 - 0.0
23/02:15am 22.2 22.1 17.8 76 2.7 WNW 15 15 8 8 1008.8 - 0.0
23/02:00am 22.4 22.7 17.8 75 2.9 WNW 13 15 7 8 1008.7 - 0.0
23/01:45am 22.5 22.0 17.7 74 3.0 WNW 17 17 9 9 1009.0 - 0.0
23/01:30am 22.7 21.8 17.8 74 3.1 WNW 19 17 10 9 1009.4 - 0.0
23/01:15am 22.5 21.6 17.8 75 2.9 WNW 19 20 10 11 1009.8 - 0.0
23/01:00am 22.2 22.0 17.7 75 2.8 WNW 15 15 8 8 1010.1 - 0.0
23/12:45am 21.8 22.4 17.7 77 2.6 WNW 11 13 6 7 1010.2 - 0.0
23/12:30am 23.1 23.0 17.9 72 3.3 WNW 15 17 8 9 1010.7 - 0.0
23/12:15am 23.3 22.9 18.0 72 3.3 WNW 17 17 9 9 1011.0 - 0.0
23/12:00am 23.3 23.3 18.2 73 3.2 WNW 15 17 8 9 1011.1 - 0.0
 
Date/Time
EDT
Temp
°C
App
Temp
°C
Dew
Point
°C
Rel
Hum
%
Delta-T
°C
Wind Press
QNH
hPa
Press
MSL
hPa
Rain since
9am
mm
Dir  Spd
km/h
Gust
km/h
Spd
kts
Gust
kts
22/11:45pm 23.2 23.3 18.4 74 3.0 WNW 15 15 8 8 1011.2 - 0.0
22/11:30pm 22.1 22.1 18.2 78 2.4 WNW 15 15 8 8 1011.3 - 0.0
22/11:15pm 21.7 23.1 17.8 78 2.4 WNW 7 11 4 6 1011.4 - 0.0
22/11:00pm 22.6 24.0 17.9 75 2.9 W 7 7 4 4 1011.5 - 0.0
22/10:45pm 23.8 24.6 18.2 71 3.5 W 11 13 6 7 1011.7 - 0.0
22/10:30pm 24.0 24.4 18.2 70 3.7 WNW 13 15 7 8 1011.8 - 0.0
22/10:15pm 24.0 24.3 18.0 69 3.8 WNW 13 13 7 7 1011.7 - 0.0
22/10:00pm 24.1 24.1 18.0 68 3.8 WNW 15 15 8 8 1011.7 - 0.0
22/09:45pm 23.8 23.8 18.1 70 3.6 WNW 15 15 8 8 1011.7 - 0.0
22/09:30pm 24.2 24.0 18.5 70 3.6 NW 17 17 9 9 1011.7 - 0.0
22/09:15pm 24.0 23.8 19.4 75 3.0 NW 19 19 10 10 1011.8 - 0.0
22/09:00pm 23.7 24.0 19.7 78 2.6 NW 17 15 9 8 1011.8 - 0.0
22/08:45pm 23.4 23.6 19.4 78 2.6 NNW 17 15 9 8 1011.7 - 0.0
22/08:30pm 23.7 24.3 19.5 77 2.7 NNW 15 15 8 8 1011.8 - 0.0
22/08:15pm 23.8 24.8 19.4 76 2.8 NNW 13 13 7 7 1011.9 - 0.0

Latest Capital City Observations: Canberra | Sydney | Melbourne | Brisbane | Adelaide | Perth | Hobart | Darwin

Other formats

Comma delimited format used in spreadsheet applications
http://www.bom.gov.au/fwo/IDN60901/IDN60901.95757.axf

JavaScript Object Notation format (JSON) in row-major order
http://www.bom.gov.au/fwo/IDN60901/IDN60901.95757.json

Data quality

Most of these data are generated automatically and are frequently updated. Quality checks on data are not normally performed. It is possible for incorrect values to appear. Refer to information at About Latest Weather Observations and please check the disclaimer before using these data.